createdAt,value
2018-06-15T00:02:53.693Z,59.70
2018-06-15T00:05:22.246Z,59.60
2018-06-15T00:07:50.755Z,59.50
2018-06-15T00:10:19.749Z,59.60
2018-06-15T00:12:48.362Z,59.60
2018-06-15T00:15:17.143Z,59.60
2018-06-15T00:17:45.868Z,59.60
2018-06-15T00:20:14.553Z,59.30
2018-06-15T00:22:43.204Z,59.60
2018-06-15T00:25:11.840Z,59.80
2018-06-15T00:27:40.494Z,59.80
2018-06-15T00:30:09.159Z,59.60
2018-06-15T00:32:37.799Z,59.70
2018-06-15T00:35:06.491Z,59.80
2018-06-15T00:37:35.163Z,59.80
2018-06-15T00:40:03.843Z,59.80
2018-06-15T00:42:32.476Z,59.70
2018-06-15T00:47:29.335Z,59.70
2018-06-15T00:49:57.883Z,59.70
2018-06-15T00:52:26.770Z,59.70
2018-06-15T00:54:55.359Z,59.80
2018-06-15T00:57:44.375Z,60.10
2018-06-15T01:00:13.055Z,60.10
2018-06-15T01:02:41.551Z,60.20
2018-06-15T01:05:10.671Z,60.40
2018-06-15T01:07:39.787Z,60.10
2018-06-15T01:10:08.530Z,60.00
2018-06-15T01:12:37.161Z,59.90
2018-06-15T01:15:06.090Z,60.30
2018-06-15T01:17:34.782Z,59.60
2018-06-15T01:20:03.397Z,59.50
2018-06-15T01:22:31.995Z,59.50
2018-06-15T01:25:00.651Z,59.60
2018-06-15T01:27:29.262Z,59.70
2018-06-15T01:29:57.879Z,59.70
2018-06-15T01:32:26.500Z,59.90
2018-06-15T01:34:55.122Z,60.00
2018-06-15T01:37:23.759Z,59.90
2018-06-15T01:39:52.338Z,60.00
2018-06-15T01:42:21.084Z,59.90
2018-06-15T01:44:49.653Z,59.90
2018-06-15T01:47:18.277Z,59.60
2018-06-15T01:49:51.835Z,59.90
2018-06-15T01:52:20.538Z,60.60
2018-06-15T01:54:49.176Z,59.90
2018-06-15T01:57:17.814Z,60.00
2018-06-15T01:59:46.360Z,59.80
2018-06-15T02:02:14.922Z,59.80
2018-06-15T02:04:43.523Z,59.60
2018-06-15T02:07:12.111Z,60.20
2018-06-15T02:09:40.692Z,60.00
2018-06-15T02:12:09.291Z,60.40
2018-06-15T02:14:37.863Z,60.30
2018-06-15T02:17:06.447Z,60.40
2018-06-15T02:19:35.069Z,60.20
2018-06-15T02:22:03.757Z,60.40
2018-06-15T02:24:32.937Z,60.20
2018-06-15T02:27:01.567Z,60.70
2018-06-15T02:29:30.179Z,60.60
2018-06-15T02:31:58.841Z,60.60
2018-06-15T02:34:27.495Z,60.70
2018-06-15T02:36:56.037Z,60.60
2018-06-15T02:39:24.615Z,60.80
2018-06-15T02:41:53.610Z,60.50
2018-06-15T02:44:22.247Z,60.50
2018-06-15T02:46:51.135Z,60.70
2018-06-15T02:49:19.785Z,60.80
2018-06-15T02:51:48.362Z,60.80
2018-06-15T02:54:17.007Z,60.60
2018-06-15T02:56:45.572Z,60.70
2018-06-15T02:59:14.227Z,60.60
2018-06-15T03:01:42.842Z,60.70
2018-06-15T03:04:11.446Z,61.00
2018-06-15T03:06:40.005Z,61.40
2018-06-15T03:09:08.614Z,61.10
2018-06-15T03:14:05.919Z,61.10
2018-06-15T03:16:34.532Z,60.90
2018-06-15T03:19:03.231Z,60.70
2018-06-15T03:21:31.850Z,60.60
2018-06-15T03:24:00.899Z,60.80
2018-06-15T03:26:29.531Z,60.80
2018-06-15T03:28:58.071Z,60.30
2018-06-15T03:31:26.676Z,60.60
2018-06-15T03:33:55.606Z,60.40
2018-06-15T03:36:24.199Z,60.50
2018-06-15T03:38:52.712Z,60.30
2018-06-15T03:41:21.243Z,60.10
2018-06-15T03:43:49.862Z,60.30
2018-06-15T03:46:18.515Z,60.70
2018-06-15T03:48:47.254Z,60.70
2018-06-15T03:51:15.811Z,60.80
2018-06-15T03:53:44.335Z,60.80
2018-06-15T03:56:12.870Z,60.70
2018-06-15T03:58:41.395Z,60.60
2018-06-15T04:01:09.987Z,60.70
2018-06-15T04:03:38.585Z,60.60
2018-06-15T04:06:07.302Z,60.70
2018-06-15T04:08:35.825Z,60.80
2018-06-15T04:11:04.383Z,60.80
2018-06-15T04:13:33.225Z,60.40
2018-06-15T04:16:01.758Z,60.40
2018-06-15T04:18:30.295Z,60.40
2018-06-15T04:20:58.930Z,60.20
2018-06-15T04:23:27.496Z,60.30
2018-06-15T04:25:56.039Z,60.40
2018-06-15T04:28:24.662Z,60.40
2018-06-15T04:30:53.267Z,60.90
2018-06-15T04:33:21.769Z,60.40
2018-06-15T04:35:50.338Z,60.70
2018-06-15T04:38:19.323Z,60.50
2018-06-15T04:40:47.938Z,60.80
2018-06-15T04:43:16.634Z,60.70
2018-06-15T04:45:45.291Z,60.50
2018-06-15T04:48:13.871Z,60.30
2018-06-15T04:50:42.420Z,59.90
2018-06-15T04:53:11.031Z,59.80
2018-06-15T04:55:39.533Z,60.00
2018-06-15T04:58:08.139Z,60.20
2018-06-15T05:00:36.703Z,60.30
2018-06-15T05:03:05.403Z,60.40
2018-06-15T05:08:02.344Z,60.20
2018-06-15T05:10:31.509Z,59.90
2018-06-15T05:13:00.215Z,60.10
2018-06-15T05:15:29.034Z,60.20
2018-06-15T05:17:57.788Z,59.90
2018-06-15T05:20:26.424Z,59.80
2018-06-15T05:22:55.105Z,59.80
2018-06-15T05:25:23.645Z,60.00
2018-06-15T05:27:52.231Z,60.00
2018-06-15T05:30:20.797Z,59.50
2018-06-15T05:32:49.399Z,59.40
2018-06-15T05:35:18.180Z,59.40
2018-06-15T05:37:46.702Z,59.10
2018-06-15T05:40:15.292Z,58.90
2018-06-15T05:42:43.908Z,58.90
2018-06-15T05:45:12.552Z,58.80
2018-06-15T05:47:41.246Z,59.00
2018-06-15T05:50:09.845Z,59.00
2018-06-15T05:55:06.964Z,58.60
2018-06-15T05:57:35.658Z,59.10
2018-06-15T06:00:05.084Z,58.70
2018-06-15T06:02:33.717Z,58.70
2018-06-15T06:05:02.265Z,58.50
2018-06-15T06:07:30.918Z,58.40
2018-06-15T06:09:59.521Z,58.30
2018-06-15T06:12:28.105Z,58.20
2018-06-15T06:14:57.407Z,58.10
2018-06-15T06:17:26.093Z,58.00
2018-06-15T06:19:54.791Z,57.80
2018-06-15T06:22:23.773Z,57.80
2018-06-15T06:24:52.417Z,57.80
2018-06-15T06:27:21.031Z,57.50
2018-06-15T06:29:51.601Z,57.50
2018-06-15T06:32:20.628Z,57.90
2018-06-15T06:34:50.715Z,57.20
2018-06-15T06:37:19.703Z,57.50
2018-06-15T06:39:48.675Z,57.50
2018-06-15T06:42:17.950Z,57.60
2018-06-15T06:44:46.735Z,57.80
2018-06-15T06:47:15.496Z,57.40
2018-06-15T06:49:44.103Z,56.90
2018-06-15T06:52:13.025Z,56.40
2018-06-15T06:54:41.757Z,55.70
2018-06-15T06:57:10.634Z,55.80
2018-06-15T06:59:40.753Z,54.70
2018-06-15T07:02:10.094Z,54.60
2018-06-15T07:04:39.819Z,54.40
2018-06-15T07:07:08.712Z,54.10
2018-06-15T07:09:37.418Z,53.90
2018-06-15T07:12:06.583Z,53.20
2018-06-15T07:14:35.682Z,53.00
2018-06-15T07:17:04.484Z,52.60
2018-06-15T07:19:33.966Z,52.20
2018-06-15T07:22:02.740Z,52.00
2018-06-15T07:24:31.550Z,52.40
2018-06-15T07:27:00.177Z,52.40
2018-06-15T07:29:29.204Z,52.20
2018-06-15T07:31:58.295Z,52.10
2018-06-15T07:34:27.080Z,52.20
2018-06-15T07:36:56.422Z,52.10
2018-06-15T07:39:24.998Z,51.70
2018-06-15T07:41:53.649Z,51.10
2018-06-15T07:44:22.840Z,50.70
2018-06-15T07:46:51.462Z,50.70
2018-06-15T07:49:20.157Z,50.70
2018-06-15T07:51:48.760Z,50.50
2018-06-15T07:54:17.591Z,50.50
2018-06-15T07:56:46.178Z,50.60
2018-06-15T07:59:15.518Z,50.30
2018-06-15T08:01:44.576Z,50.00
2018-06-15T08:04:13.305Z,50.00
2018-06-15T08:06:42.309Z,49.70
2018-06-15T08:09:11.025Z,49.50
2018-06-15T08:11:39.724Z,49.80
2018-06-15T08:14:08.665Z,49.20
2018-06-15T08:16:37.406Z,49.50
2018-06-15T08:19:06.099Z,49.70
2018-06-15T08:21:34.840Z,49.60
2018-06-15T08:24:03.658Z,49.20
2018-06-15T08:26:32.768Z,49.60
2018-06-15T08:29:01.510Z,49.10
2018-06-15T08:31:30.256Z,49.20
2018-06-15T08:33:59.115Z,49.50
2018-06-15T08:36:27.823Z,49.20
2018-06-15T08:38:56.761Z,49.00
2018-06-15T08:41:25.391Z,48.80
2018-06-15T08:43:55.252Z,49.40
2018-06-15T08:46:24.039Z,49.30
2018-06-15T08:48:52.729Z,49.10
2018-06-15T08:51:21.476Z,49.40
2018-06-15T08:53:50.128Z,49.20
2018-06-15T08:56:19.914Z,49.70
2018-06-15T08:58:49.022Z,49.30
2018-06-15T09:01:18.955Z,49.10
2018-06-15T09:03:50.520Z,49.10
2018-06-15T09:06:22.254Z,49.50
2018-06-15T09:08:51.233Z,49.30
2018-06-15T09:11:20.172Z,49.20
2018-06-15T09:13:49.025Z,48.90
2018-06-15T09:16:18.145Z,49.30
2018-06-15T09:18:47.483Z,49.30
2018-06-15T09:21:16.922Z,49.10
2018-06-15T09:23:46.443Z,46.90
2018-06-15T09:26:16.718Z,46.90
2018-06-15T09:28:45.608Z,47.50
2018-06-15T09:31:14.879Z,46.20
2018-06-15T09:33:44.343Z,45.00
2018-06-15T09:36:14.523Z,45.90
2018-06-15T09:38:50.667Z,45.50
2018-06-15T09:41:22.965Z,45.10
2018-06-15T09:44:00.357Z,45.00
2018-06-15T09:46:30.561Z,45.70
2018-06-15T09:49:03.954Z,45.60
2018-06-15T09:51:35.997Z,45.50
2018-06-15T09:56:54.841Z,45.40
2018-06-15T09:59:25.021Z,45.40
2018-06-15T10:01:54.017Z,44.80
2018-06-15T10:04:25.933Z,45.00
2018-06-15T10:06:55.500Z,44.80
2018-06-15T10:09:24.186Z,45.70
2018-06-15T10:11:53.511Z,45.30
2018-06-15T10:14:22.696Z,44.60
2018-06-15T10:16:52.341Z,44.70
2018-06-15T10:19:21.864Z,45.00
2018-06-15T10:21:51.422Z,45.10
2018-06-15T10:24:20.093Z,44.50
2018-06-15T10:26:49.398Z,45.20
2018-06-15T10:29:18.659Z,44.30
2018-06-15T10:31:47.588Z,44.40
2018-06-15T10:34:16.460Z,44.30
2018-06-15T10:36:46.091Z,44.90
2018-06-15T10:39:15.082Z,44.80
2018-06-15T10:44:13.906Z,45.20
2018-06-15T10:46:43.268Z,45.00
2018-06-15T10:49:11.891Z,45.40
2018-06-15T10:51:40.564Z,45.30
2018-06-15T10:54:10.254Z,45.00
2018-06-15T10:56:38.982Z,44.90
2018-06-15T10:59:07.699Z,46.00
2018-06-15T11:01:37.154Z,46.20
2018-06-15T11:04:05.919Z,45.00
2018-06-15T11:06:40.568Z,45.50
2018-06-15T11:09:09.280Z,45.30
2018-06-15T11:11:38.465Z,45.50
2018-06-15T11:14:07.094Z,45.90
2018-06-15T11:16:36.395Z,45.80
2018-06-15T11:19:05.280Z,46.30
2018-06-15T11:21:35.709Z,45.40
2018-06-15T11:24:04.606Z,45.70
2018-06-15T11:26:33.727Z,45.40
2018-06-15T11:29:02.726Z,46.50
2018-06-15T11:31:31.468Z,46.40
2018-06-15T11:34:01.551Z,45.90
2018-06-15T11:36:30.139Z,45.10
2018-06-15T11:38:58.774Z,45.40
2018-06-15T11:41:27.304Z,45.50
2018-06-15T11:43:56.060Z,45.80
2018-06-15T11:46:25.168Z,45.60
2018-06-15T11:48:54.483Z,46.30
2018-06-15T11:51:23.301Z,45.10
2018-06-15T11:53:52.012Z,44.60
2018-06-15T11:56:20.607Z,44.30
2018-06-15T11:58:49.272Z,45.90
2018-06-15T12:01:18.021Z,45.70
2018-06-15T12:03:46.648Z,45.80
2018-06-15T12:06:15.295Z,44.80
2018-06-15T12:08:44.298Z,45.90
2018-06-15T12:11:13.120Z,45.30
2018-06-15T12:13:41.843Z,45.50
2018-06-15T12:16:10.472Z,44.00
2018-06-15T12:18:39.298Z,44.00
2018-06-15T12:21:08.056Z,45.00
2018-06-15T12:23:36.706Z,44.30
2018-06-15T12:26:05.554Z,45.50
2018-06-15T12:28:34.400Z,44.40
2018-06-15T12:31:03.326Z,44.20
2018-06-15T12:33:32.057Z,44.20
2018-06-15T12:36:00.821Z,43.40
2018-06-15T12:38:29.428Z,44.00
2018-06-15T12:40:58.167Z,44.10
2018-06-15T12:43:26.746Z,44.00
2018-06-15T12:45:55.471Z,44.60
2018-06-15T12:48:24.071Z,44.30
2018-06-15T12:50:52.678Z,43.80
2018-06-15T12:53:21.641Z,44.00
2018-06-15T12:55:50.303Z,42.60
2018-06-15T12:58:19.458Z,43.50
2018-06-15T13:00:48.117Z,43.90
2018-06-15T13:03:16.977Z,43.20
2018-06-15T13:05:45.816Z,42.90
2018-06-15T13:08:14.831Z,42.30
2018-06-15T13:10:43.643Z,42.90
2018-06-15T13:13:12.435Z,42.50
2018-06-15T13:15:41.073Z,43.20
2018-06-15T13:18:09.779Z,42.50
2018-06-15T13:20:38.453Z,42.80
2018-06-15T13:23:08.444Z,43.30
2018-06-15T13:25:37.565Z,42.60
2018-06-15T13:28:06.294Z,41.90
2018-06-15T13:30:35.733Z,41.90
2018-06-15T13:33:04.744Z,42.50
2018-06-15T13:35:33.676Z,42.20
2018-06-15T13:38:03.344Z,41.60
2018-06-15T13:40:32.438Z,42.90
2018-06-15T13:43:01.084Z,43.00
2018-06-15T13:45:29.812Z,43.10
2018-06-15T13:47:58.499Z,41.20
2018-06-15T13:50:27.187Z,42.20
2018-06-15T13:52:56.180Z,42.70
2018-06-15T13:55:25.489Z,42.40
2018-06-15T13:57:54.228Z,42.00
2018-06-15T14:00:22.978Z,42.30
2018-06-15T14:02:51.663Z,43.00
2018-06-15T14:05:20.333Z,42.90
2018-06-15T14:10:17.401Z,43.10
2018-06-15T14:12:46.163Z,43.30
2018-06-15T14:15:14.841Z,43.40
2018-06-15T14:17:43.422Z,43.70
2018-06-15T14:20:12.135Z,44.30
2018-06-15T14:22:40.853Z,43.70
2018-06-15T14:25:09.508Z,43.30
2018-06-15T14:27:38.417Z,43.90
2018-06-15T14:30:07.292Z,43.60
2018-06-15T14:32:36.124Z,43.50
2018-06-15T14:35:04.725Z,42.40
2018-06-15T14:37:33.938Z,42.70
2018-06-15T14:40:02.782Z,43.40
2018-06-15T14:42:31.627Z,43.10
2018-06-15T14:45:00.290Z,43.90
2018-06-15T14:47:29.357Z,43.70
2018-06-15T14:49:58.339Z,42.60
2018-06-15T14:52:27.009Z,42.70
2018-06-15T14:54:55.766Z,43.50
2018-06-15T14:57:25.400Z,44.30
2018-06-15T14:59:54.191Z,44.10
2018-06-15T15:02:23.325Z,43.90
2018-06-15T15:04:52.091Z,42.60
2018-06-15T15:07:20.679Z,43.00
2018-06-15T15:09:49.571Z,42.90
2018-06-15T15:12:18.259Z,43.10
2018-06-15T15:14:47.128Z,43.20
2018-06-15T15:17:16.033Z,43.10
2018-06-15T15:19:44.675Z,43.30
2018-06-15T15:22:13.419Z,42.00
2018-06-15T15:24:42.392Z,42.40
2018-06-15T15:27:11.191Z,42.50
2018-06-15T15:29:39.891Z,43.20
2018-06-15T15:32:08.488Z,42.60
2018-06-15T15:34:37.140Z,42.90
2018-06-15T15:37:05.914Z,42.80
2018-06-15T15:39:34.497Z,43.10
2018-06-15T15:42:03.093Z,43.00
2018-06-15T15:44:31.821Z,43.00
2018-06-15T15:47:00.672Z,42.10
2018-06-15T15:49:29.658Z,42.70
2018-06-15T15:51:58.272Z,42.50
2018-06-15T15:54:26.853Z,41.40
2018-06-15T15:56:55.511Z,42.50
2018-06-15T15:59:24.274Z,42.20
2018-06-15T16:01:52.906Z,42.30
2018-06-15T16:04:21.590Z,42.50
2018-06-15T16:06:50.450Z,42.60
2018-06-15T16:09:19.122Z,43.00
2018-06-15T16:11:47.850Z,43.30
2018-06-15T16:14:16.563Z,43.40
2018-06-15T16:16:45.420Z,42.90
2018-06-15T16:19:14.426Z,43.50
2018-06-15T16:21:43.627Z,43.00
2018-06-15T16:26:40.472Z,42.40
2018-06-15T16:29:09.174Z,42.40
2018-06-15T16:31:37.942Z,42.60
2018-06-15T16:34:06.856Z,43.10
2018-06-15T16:36:35.559Z,43.00
2018-06-15T16:39:05.869Z,42.60
2018-06-15T16:41:35.270Z,43.50
2018-06-15T16:44:03.974Z,44.20
2018-06-15T16:46:32.977Z,42.90
2018-06-15T16:49:01.593Z,43.90
2018-06-15T16:51:30.251Z,44.00
2018-06-15T16:53:59.382Z,44.40
2018-06-15T16:56:28.281Z,44.30
2018-06-15T16:58:56.907Z,44.00
2018-06-15T17:01:25.604Z,44.10
2018-06-15T17:03:54.247Z,44.50
2018-06-15T17:06:24.124Z,43.80
2018-06-15T17:08:52.804Z,44.30
2018-06-15T17:11:21.465Z,43.90
2018-06-15T17:13:50.075Z,43.30
2018-06-15T17:16:18.683Z,43.10
2018-06-15T17:18:47.452Z,43.50
2018-06-15T17:21:16.511Z,43.00
2018-06-15T17:23:45.292Z,43.30
2018-06-15T17:26:14.187Z,43.10
2018-06-15T17:28:42.823Z,43.30
2018-06-15T17:31:11.476Z,43.00
2018-06-15T17:33:40.396Z,44.10
2018-06-15T17:36:09.099Z,44.30
2018-06-15T17:38:37.963Z,44.80
2018-06-15T17:41:07.079Z,44.30
2018-06-15T17:43:35.850Z,44.20
2018-06-15T17:46:05.120Z,44.50
2018-06-15T17:48:33.953Z,43.90
2018-06-15T17:51:02.660Z,42.90
2018-06-15T17:53:31.190Z,43.20
2018-06-15T17:55:59.897Z,43.90
2018-06-15T17:58:28.631Z,42.70
2018-06-15T18:00:57.422Z,43.30
2018-06-15T18:03:26.117Z,43.20
2018-06-15T18:05:54.944Z,42.90
2018-06-15T18:08:23.729Z,42.90
2018-06-15T18:10:52.817Z,42.80
2018-06-15T18:13:21.967Z,43.30
2018-06-15T18:15:50.878Z,43.60
2018-06-15T18:18:19.765Z,43.90
2018-06-15T18:20:48.612Z,43.70
2018-06-15T18:23:17.375Z,43.80
2018-06-15T18:25:46.029Z,44.70
2018-06-15T18:30:42.999Z,44.80
2018-06-15T18:33:12.109Z,45.40
2018-06-15T18:35:40.748Z,44.80
2018-06-15T18:38:09.382Z,44.90
2018-06-15T18:40:38.150Z,45.50
2018-06-15T18:43:06.869Z,45.80
2018-06-15T18:45:36.084Z,45.70
2018-06-15T18:48:05.102Z,45.30
2018-06-15T18:50:33.884Z,45.70
2018-06-15T18:53:02.504Z,46.00
2018-06-15T18:55:31.155Z,45.40
2018-06-15T18:57:59.902Z,45.70
2018-06-15T19:00:28.845Z,44.90
2018-06-15T19:02:57.515Z,44.60
2018-06-15T19:05:26.208Z,45.50
2018-06-15T19:07:54.938Z,45.20
2018-06-15T19:10:23.787Z,45.10
2018-06-15T19:12:52.567Z,45.40
2018-06-15T19:15:21.404Z,46.90
2018-06-15T19:17:50.087Z,46.20
2018-06-15T19:20:18.887Z,46.80
2018-06-15T19:22:47.498Z,47.10
2018-06-15T19:25:16.214Z,47.70
2018-06-15T19:27:46.541Z,48.00
2018-06-15T19:30:15.239Z,48.00
2018-06-15T19:32:43.853Z,47.80
2018-06-15T19:35:12.504Z,48.10
2018-06-15T19:37:41.093Z,48.60
2018-06-15T19:40:10.295Z,48.70
2018-06-15T19:42:38.879Z,48.80
2018-06-15T19:47:35.786Z,48.60
2018-06-15T19:50:04.605Z,48.80
2018-06-15T19:52:33.304Z,49.10
2018-06-15T19:55:02.061Z,49.40
2018-06-15T19:57:30.763Z,49.70
2018-06-15T19:59:59.400Z,50.00
2018-06-15T20:02:28.931Z,50.00
2018-06-15T20:04:57.642Z,50.30
2018-06-15T20:07:26.363Z,50.20
2018-06-15T20:09:55.067Z,50.30
2018-06-15T20:12:24.530Z,50.50
2018-06-15T20:14:53.380Z,50.80
2018-06-15T20:17:22.323Z,51.10
2018-06-15T20:22:19.134Z,51.70
2018-06-15T20:24:47.799Z,51.90
2018-06-15T20:27:16.759Z,52.70
2018-06-15T20:29:45.431Z,52.30
2018-06-15T20:32:14.032Z,52.40
2018-06-15T20:34:42.586Z,52.60
2018-06-15T20:37:11.216Z,52.70
2018-06-15T20:39:40.355Z,53.00
2018-06-15T20:42:08.898Z,52.90
2018-06-15T20:44:37.825Z,52.80
2018-06-15T20:47:07.023Z,52.90
2018-06-15T20:49:35.643Z,53.00
2018-06-15T20:52:04.947Z,53.10
2018-06-15T20:54:33.628Z,53.20
2018-06-15T20:57:02.607Z,53.30
2018-06-15T20:59:31.225Z,53.20
2018-06-15T21:04:28.349Z,53.40
2018-06-15T21:06:56.966Z,53.50
2018-06-15T21:09:25.555Z,53.80
2018-06-15T21:11:54.215Z,54.60
2018-06-15T21:14:23.334Z,54.00
2018-06-15T21:16:52.091Z,54.20
2018-06-15T21:19:20.776Z,54.20
2018-06-15T21:21:50.007Z,54.10
2018-06-15T21:24:19.073Z,54.20
2018-06-15T21:26:47.798Z,54.40
2018-06-15T21:29:16.643Z,54.50
2018-06-15T21:31:45.435Z,54.70
2018-06-15T21:34:14.111Z,55.00
2018-06-15T21:36:43.012Z,55.10
2018-06-15T21:39:11.567Z,55.40
2018-06-15T21:41:40.163Z,55.50
2018-06-15T21:44:09.007Z,55.30
2018-06-15T21:46:37.915Z,55.50
2018-06-15T21:49:06.999Z,55.60
2018-06-15T21:51:35.643Z,55.60
2018-06-15T21:54:04.200Z,55.90
2018-06-15T21:56:34.048Z,56.10
2018-06-15T21:59:02.992Z,56.20
2018-06-15T22:01:31.864Z,56.20
2018-06-15T22:04:00.379Z,56.00
2018-06-15T22:06:29.048Z,56.20
2018-06-15T22:08:57.574Z,56.40
2018-06-15T22:11:26.139Z,57.00
2018-06-15T22:13:54.738Z,57.30
2018-06-15T22:16:23.407Z,57.00
2018-06-15T22:18:52.073Z,57.00
2018-06-15T22:21:20.733Z,57.00
2018-06-15T22:23:49.306Z,57.00
2018-06-15T22:26:17.852Z,57.30
2018-06-15T22:28:46.473Z,57.30
2018-06-15T22:31:14.980Z,57.10
2018-06-15T22:33:43.651Z,57.00
2018-06-15T22:36:12.217Z,57.40
2018-06-15T22:38:40.888Z,57.50
2018-06-15T22:41:09.675Z,57.30
2018-06-15T22:43:38.308Z,56.70
2018-06-15T22:46:06.943Z,56.50
2018-06-15T22:48:35.564Z,56.60
2018-06-15T22:53:34.221Z,56.90
2018-06-15T22:56:02.732Z,56.70
2018-06-15T22:58:38.211Z,56.70
2018-06-15T23:01:07.003Z,57.10
2018-06-15T23:03:35.823Z,57.00
2018-06-15T23:06:04.422Z,57.00
2018-06-15T23:08:33.051Z,57.30
2018-06-15T23:11:01.642Z,57.40
2018-06-15T23:13:30.310Z,57.50
2018-06-15T23:15:59.017Z,57.80
2018-06-15T23:18:28.122Z,58.20
2018-06-15T23:20:56.684Z,58.40
2018-06-15T23:23:25.747Z,58.60
2018-06-15T23:25:55.485Z,58.80
2018-06-15T23:28:24.107Z,59.00
2018-06-15T23:30:52.972Z,59.00
2018-06-15T23:33:21.615Z,59.60
2018-06-15T23:35:51.515Z,58.70
2018-06-15T23:38:20.695Z,58.60
2018-06-15T23:40:50.674Z,58.60
2018-06-15T23:43:19.648Z,58.70
2018-06-15T23:45:48.310Z,58.80
2018-06-15T23:48:17.612Z,58.80
2018-06-15T23:50:46.199Z,58.50
2018-06-15T23:53:15.541Z,58.70
2018-06-15T23:55:44.124Z,58.20
2018-06-15T23:58:13.688Z,58.30
